createdAt,value
2017-12-16T00:02:09.813Z,62.90
2017-12-16T00:04:37.276Z,63.20
2017-12-16T00:07:04.727Z,62.70
2017-12-16T00:09:32.178Z,63.40
2017-12-16T00:11:59.636Z,62.60
2017-12-16T00:14:27.097Z,62.70
2017-12-16T00:16:54.553Z,62.60
2017-12-16T00:19:22.006Z,62.40
2017-12-16T00:21:49.469Z,62.70
2017-12-16T00:24:16.926Z,62.50
2017-12-16T00:26:44.385Z,62.70
2017-12-16T00:29:11.931Z,62.40
2017-12-16T00:31:40.897Z,62.50
2017-12-16T00:34:08.342Z,62.70
2017-12-16T00:36:35.793Z,62.80
2017-12-16T00:39:04.013Z,62.90
2017-12-16T00:41:31.465Z,62.90
2017-12-16T00:43:58.923Z,63.00
2017-12-16T00:46:26.364Z,63.40
2017-12-16T00:48:53.834Z,63.90
2017-12-16T00:51:21.289Z,63.80
2017-12-16T00:53:48.750Z,63.60
2017-12-16T00:56:16.207Z,63.70
2017-12-16T00:58:43.662Z,63.90
2017-12-16T01:01:11.115Z,64.10
2017-12-16T01:03:38.578Z,63.90
2017-12-16T01:06:06.035Z,63.60
2017-12-16T01:08:33.497Z,63.40
2017-12-16T01:11:00.948Z,63.20
2017-12-16T01:13:28.421Z,63.70
2017-12-16T01:15:55.864Z,64.70
2017-12-16T01:18:23.351Z,64.80
2017-12-16T01:20:50.789Z,64.60
2017-12-16T01:23:18.237Z,64.30
2017-12-16T01:25:45.701Z,64.10
2017-12-16T01:28:13.158Z,63.90
2017-12-16T01:30:40.618Z,63.70
2017-12-16T01:33:08.073Z,63.60
2017-12-16T01:35:48.089Z,63.90
2017-12-16T01:38:28.138Z,63.80
2017-12-16T01:40:55.597Z,63.70
2017-12-16T01:43:23.042Z,63.60
2017-12-16T01:45:50.502Z,63.50
2017-12-16T01:48:17.948Z,63.80
2017-12-16T01:50:45.401Z,63.40
2017-12-16T01:53:12.853Z,64.10
2017-12-16T01:55:40.319Z,64.30
2017-12-16T01:58:07.773Z,64.50
2017-12-16T02:00:35.226Z,63.70
2017-12-16T02:03:02.677Z,63.50
2017-12-16T02:05:30.133Z,63.80
2017-12-16T02:07:57.590Z,63.90
2017-12-16T02:10:25.049Z,63.70
2017-12-16T02:12:52.513Z,63.80
2017-12-16T02:15:19.970Z,64.10
2017-12-16T02:17:47.425Z,64.30
2017-12-16T02:20:14.936Z,64.20
2017-12-16T02:22:42.333Z,64.30
2017-12-16T02:25:09.789Z,64.20
2017-12-16T02:27:37.245Z,64.40
2017-12-16T02:30:05.458Z,64.50
2017-12-16T02:32:32.920Z,64.50
2017-12-16T02:35:00.368Z,64.10
2017-12-16T02:37:27.814Z,64.40
2017-12-16T02:39:56.046Z,63.70
2017-12-16T02:42:23.498Z,63.70
2017-12-16T02:44:50.962Z,63.90
2017-12-16T02:47:18.431Z,63.90
2017-12-16T02:49:45.903Z,63.90
2017-12-16T02:52:14.868Z,64.10
2017-12-16T02:54:42.330Z,64.10
2017-12-16T02:57:09.773Z,63.80
2017-12-16T02:59:37.233Z,64.20
2017-12-16T03:02:04.677Z,63.90
2017-12-16T03:04:32.134Z,64.10
2017-12-16T03:06:59.582Z,64.40
2017-12-16T03:09:27.054Z,64.40
2017-12-16T03:11:54.513Z,64.40
2017-12-16T03:14:21.966Z,64.30
2017-12-16T03:16:50.193Z,64.70
2017-12-16T03:19:17.653Z,64.70
2017-12-16T03:21:45.111Z,64.20
2017-12-16T03:24:13.326Z,64.50
2017-12-16T03:26:40.811Z,64.50
2017-12-16T03:29:08.266Z,64.90
2017-12-16T03:31:35.725Z,65.20
2017-12-16T03:34:03.170Z,65.10
2017-12-16T03:36:30.633Z,65.10
2017-12-16T03:38:58.081Z,65.10
2017-12-16T03:41:25.544Z,65.00
2017-12-16T03:43:53.002Z,65.00
2017-12-16T03:46:20.491Z,64.50
2017-12-16T03:48:47.935Z,64.60
2017-12-16T03:51:15.502Z,64.80
2017-12-16T03:53:42.960Z,64.60
2017-12-16T03:56:10.397Z,65.00
2017-12-16T03:58:37.861Z,64.70
2017-12-16T04:01:05.318Z,64.50
2017-12-16T04:03:32.769Z,64.60
2017-12-16T04:06:00.219Z,64.30
2017-12-16T04:08:28.442Z,64.40
2017-12-16T04:10:56.665Z,64.20
2017-12-16T04:13:24.117Z,64.20
2017-12-16T04:15:51.565Z,64.10
2017-12-16T04:18:19.026Z,64.70
2017-12-16T04:20:46.477Z,64.30
2017-12-16T04:23:13.930Z,64.60
2017-12-16T04:25:41.378Z,64.40
2017-12-16T04:28:09.598Z,65.40
2017-12-16T04:30:37.814Z,64.50
2017-12-16T04:33:06.045Z,64.40
2017-12-16T04:35:33.494Z,64.50
2017-12-16T04:38:00.946Z,64.70
2017-12-16T04:40:28.418Z,65.10
2017-12-16T04:42:55.862Z,65.20
2017-12-16T04:45:23.317Z,64.90
2017-12-16T04:47:50.765Z,64.60
2017-12-16T04:50:18.995Z,65.00
2017-12-16T04:52:46.459Z,64.90
2017-12-16T04:55:14.677Z,64.50
2017-12-16T04:57:42.129Z,64.50
2017-12-16T05:00:09.589Z,64.30
2017-12-16T05:02:37.041Z,65.00
2017-12-16T05:05:04.504Z,65.00
2017-12-16T05:07:31.945Z,65.70
2017-12-16T05:09:59.418Z,65.10
2017-12-16T05:12:26.862Z,65.10
2017-12-16T05:14:54.333Z,65.20
2017-12-16T05:17:21.772Z,65.20
2017-12-16T05:19:49.235Z,65.20
2017-12-16T05:22:17.454Z,65.10
2017-12-16T05:24:44.917Z,65.00
2017-12-16T05:27:12.361Z,65.20
2017-12-16T05:29:39.824Z,65.00
2017-12-16T05:32:07.265Z,64.10
2017-12-16T05:34:34.717Z,64.10
2017-12-16T05:37:02.177Z,63.80
2017-12-16T05:39:29.637Z,64.50
2017-12-16T05:41:57.085Z,63.60
2017-12-16T05:44:24.553Z,63.60
2017-12-16T05:46:52.002Z,63.90
2017-12-16T05:49:19.449Z,64.70
2017-12-16T05:51:46.910Z,64.50
2017-12-16T05:54:14.362Z,64.10
2017-12-16T05:56:42.581Z,64.60
2017-12-16T05:59:10.033Z,64.60
2017-12-16T06:01:37.498Z,64.50
2017-12-16T06:04:04.944Z,64.80
2017-12-16T06:06:32.420Z,65.00
2017-12-16T06:08:59.862Z,65.40
2017-12-16T06:11:27.314Z,65.50
2017-12-16T06:13:54.768Z,65.50
2017-12-16T06:16:22.986Z,65.70
2017-12-16T06:18:50.446Z,65.60
2017-12-16T06:21:17.914Z,66.00
2017-12-16T06:23:45.365Z,66.00
2017-12-16T06:26:12.818Z,66.10
2017-12-16T06:28:40.271Z,66.00
2017-12-16T06:31:08.492Z,65.80
2017-12-16T06:33:35.953Z,65.70
2017-12-16T06:36:03.409Z,65.80
2017-12-16T06:38:30.857Z,65.80
2017-12-16T06:40:58.325Z,65.90
2017-12-16T06:43:25.774Z,65.90
2017-12-16T06:45:53.240Z,65.40
2017-12-16T06:48:20.702Z,65.60
2017-12-16T06:50:48.162Z,64.90
2017-12-16T06:53:16.371Z,64.40
2017-12-16T06:55:44.609Z,64.70
2017-12-16T06:58:12.075Z,64.60
2017-12-16T07:00:39.524Z,64.60
2017-12-16T07:03:06.986Z,65.30
2017-12-16T07:05:34.438Z,65.60
2017-12-16T07:08:01.900Z,65.30
2017-12-16T07:10:29.354Z,65.00
2017-12-16T07:12:56.814Z,65.10
2017-12-16T07:15:24.473Z,65.00
2017-12-16T07:17:51.926Z,64.90
2017-12-16T07:20:19.384Z,64.70
2017-12-16T07:22:46.845Z,64.80
2017-12-16T07:25:14.302Z,64.60
2017-12-16T07:27:42.514Z,64.30
2017-12-16T07:30:09.963Z,64.30
2017-12-16T07:32:38.197Z,64.50
2017-12-16T07:35:05.650Z,64.50
2017-12-16T07:37:33.117Z,65.10
2017-12-16T07:40:00.565Z,64.70
2017-12-16T07:42:28.037Z,64.50
2017-12-16T07:44:55.495Z,64.80
2017-12-16T07:47:22.950Z,64.50
2017-12-16T07:49:50.414Z,64.40
2017-12-16T07:52:17.890Z,64.50
2017-12-16T07:54:46.113Z,65.00
2017-12-16T07:57:13.567Z,65.00
2017-12-16T07:59:41.024Z,64.60
2017-12-16T08:02:08.492Z,64.20
2017-12-16T08:04:35.969Z,63.60
2017-12-16T08:07:03.425Z,63.60
2017-12-16T08:09:30.885Z,64.50
2017-12-16T08:11:58.349Z,64.10
2017-12-16T08:14:25.813Z,64.00
2017-12-16T08:16:53.269Z,64.40
2017-12-16T08:19:20.727Z,64.90
2017-12-16T08:21:48.182Z,64.70
2017-12-16T08:24:15.642Z,64.80
2017-12-16T08:26:43.093Z,64.70
2017-12-16T08:29:10.558Z,65.10
2017-12-16T08:31:38.065Z,64.90
2017-12-16T08:34:05.466Z,64.70
2017-12-16T08:36:32.913Z,64.50
2017-12-16T08:39:00.365Z,65.30
2017-12-16T08:41:27.822Z,64.80
2017-12-16T08:43:55.335Z,65.00
2017-12-16T08:46:22.744Z,64.60
2017-12-16T08:48:50.209Z,64.10
2017-12-16T08:51:17.670Z,63.70
2017-12-16T08:53:45.113Z,64.20
2017-12-16T08:56:12.570Z,63.50
2017-12-16T08:58:40.031Z,63.70
2017-12-16T09:01:07.489Z,62.90
2017-12-16T09:03:34.929Z,62.40
2017-12-16T09:06:02.387Z,62.50
2017-12-16T09:08:29.833Z,62.90
2017-12-16T09:10:57.294Z,63.00
2017-12-16T09:13:24.753Z,62.00
2017-12-16T09:15:52.205Z,61.80
2017-12-16T09:18:19.674Z,61.40
2017-12-16T09:20:47.140Z,61.30
2017-12-16T09:23:14.597Z,61.20
2017-12-16T09:25:42.053Z,61.60
2017-12-16T09:28:09.502Z,61.50
2017-12-16T09:30:36.950Z,62.30
2017-12-16T09:33:04.424Z,62.30
2017-12-16T09:35:31.881Z,62.20
2017-12-16T09:37:59.329Z,62.00
2017-12-16T09:40:26.778Z,62.20
2017-12-16T09:42:54.250Z,61.90
2017-12-16T09:45:21.689Z,62.30
2017-12-16T09:47:49.150Z,62.20
2017-12-16T09:50:16.634Z,62.40
2017-12-16T09:52:44.147Z,62.60
2017-12-16T09:55:11.689Z,62.70
2017-12-16T09:57:39.161Z,62.20
2017-12-16T10:00:07.371Z,61.30
2017-12-16T10:02:34.821Z,61.20
2017-12-16T10:05:02.274Z,61.70
2017-12-16T10:07:29.742Z,60.00
2017-12-16T10:09:57.188Z,60.10
2017-12-16T10:12:24.642Z,59.70
2017-12-16T10:14:52.081Z,59.30
2017-12-16T10:17:19.541Z,59.30
2017-12-16T10:19:47.039Z,58.00
2017-12-16T10:22:14.445Z,58.20
2017-12-16T10:24:41.886Z,56.80
2017-12-16T10:27:09.341Z,56.10
2017-12-16T10:29:36.785Z,55.60
2017-12-16T10:32:04.253Z,54.70
2017-12-16T10:34:31.693Z,54.30
2017-12-16T10:36:59.153Z,53.20
2017-12-16T10:39:26.618Z,53.40
2017-12-16T10:41:55.586Z,53.00
2017-12-16T10:44:23.046Z,53.00
2017-12-16T10:46:50.490Z,53.60
2017-12-16T10:49:17.959Z,54.40
2017-12-16T10:51:45.410Z,54.80
2017-12-16T10:54:12.874Z,54.40
2017-12-16T10:56:40.326Z,54.50
2017-12-16T10:59:07.785Z,54.20
2017-12-16T11:01:35.255Z,54.70
2017-12-16T11:04:02.707Z,55.80
2017-12-16T11:06:30.166Z,56.40
2017-12-16T11:08:57.625Z,56.50
2017-12-16T11:11:25.077Z,56.60
2017-12-16T11:13:52.545Z,57.40
2017-12-16T11:16:19.989Z,57.80
2017-12-16T11:18:47.450Z,57.30
2017-12-16T11:21:14.905Z,57.30
2017-12-16T11:23:42.365Z,58.20
2017-12-16T11:26:09.820Z,57.80
2017-12-16T11:28:37.273Z,56.80
2017-12-16T11:31:04.725Z,54.70
2017-12-16T11:33:32.184Z,53.80
2017-12-16T11:35:59.647Z,49.40
2017-12-16T11:38:27.093Z,45.80
2017-12-16T11:40:54.562Z,44.60
2017-12-16T11:43:22.010Z,45.30
2017-12-16T11:45:49.465Z,43.90
2017-12-16T11:48:16.914Z,41.60
2017-12-16T11:50:44.369Z,43.20
2017-12-16T11:53:14.713Z,44.60
2017-12-16T11:55:42.929Z,48.70
2017-12-16T11:58:11.137Z,51.00
2017-12-16T12:00:38.600Z,50.90
2017-12-16T12:03:06.053Z,51.90
2017-12-16T12:05:33.521Z,52.60
2017-12-16T12:08:00.978Z,50.00
2017-12-16T12:10:28.438Z,51.10
2017-12-16T12:12:55.898Z,50.00
2017-12-16T12:15:23.384Z,49.70
2017-12-16T12:17:50.842Z,48.00
2017-12-16T12:20:19.058Z,48.50
2017-12-16T12:22:47.274Z,47.40
2017-12-16T12:25:14.734Z,47.20
2017-12-16T12:27:42.208Z,45.90
2017-12-16T12:30:09.674Z,45.90
2017-12-16T12:32:37.135Z,46.80
2017-12-16T12:35:05.353Z,54.60
2017-12-16T12:37:32.814Z,54.30
2017-12-16T12:40:00.278Z,54.20
2017-12-16T12:42:27.814Z,54.40
2017-12-16T12:44:55.246Z,54.70
2017-12-16T12:47:22.740Z,54.80
2017-12-16T12:49:50.177Z,55.00
2017-12-16T12:52:17.629Z,55.30
2017-12-16T12:54:45.075Z,54.60
2017-12-16T12:57:13.288Z,55.20
2017-12-16T12:59:40.745Z,55.20
2017-12-16T13:02:10.133Z,55.50
2017-12-16T13:04:37.586Z,56.20
2017-12-16T13:07:05.035Z,56.30
2017-12-16T13:09:32.489Z,57.10
2017-12-16T13:12:00.725Z,57.20
2017-12-16T13:14:28.178Z,57.20
2017-12-16T13:16:55.644Z,57.50
2017-12-16T13:19:23.203Z,57.30
2017-12-16T13:21:50.702Z,57.60
2017-12-16T13:24:18.150Z,57.60
2017-12-16T13:26:46.362Z,58.50
2017-12-16T13:29:13.813Z,58.50
2017-12-16T13:31:41.249Z,59.10
2017-12-16T13:34:08.703Z,58.80
2017-12-16T13:36:37.997Z,58.50
2017-12-16T13:39:06.220Z,58.80
2017-12-16T13:41:33.665Z,58.70
2017-12-16T13:44:01.123Z,56.40
2017-12-16T13:46:28.582Z,55.20
2017-12-16T13:48:56.038Z,53.70
2017-12-16T13:51:23.477Z,53.80
2017-12-16T13:53:50.970Z,53.80
2017-12-16T13:56:18.406Z,53.70
2017-12-16T13:58:45.867Z,53.10
2017-12-16T14:01:13.327Z,52.60
2017-12-16T14:03:40.785Z,53.00
2017-12-16T14:06:08.238Z,53.30
2017-12-16T14:08:35.700Z,53.50
2017-12-16T14:11:03.162Z,53.70
2017-12-16T14:13:30.615Z,54.40
2017-12-16T14:15:58.069Z,55.00
2017-12-16T14:18:25.526Z,55.20
2017-12-16T14:20:53.054Z,55.60
2017-12-16T14:23:21.354Z,56.00
2017-12-16T14:25:48.818Z,56.00
2017-12-16T14:28:16.287Z,56.70
2017-12-16T14:30:43.758Z,56.60
2017-12-16T14:33:11.207Z,57.20
2017-12-16T14:35:38.665Z,57.80
2017-12-16T14:38:06.210Z,59.20
2017-12-16T14:40:33.881Z,59.30
2017-12-16T14:43:01.432Z,59.40
2017-12-16T14:45:29.211Z,59.50
2017-12-16T14:47:56.850Z,59.40
2017-12-16T14:50:24.716Z,59.60
2017-12-16T14:52:52.343Z,59.30
2017-12-16T14:55:19.818Z,60.00
2017-12-16T14:57:47.278Z,61.00
2017-12-16T15:00:14.915Z,60.90
2017-12-16T15:02:43.138Z,62.10
2017-12-16T15:05:10.582Z,62.00
2017-12-16T15:07:38.044Z,62.20
2017-12-16T15:10:05.486Z,62.20
2017-12-16T15:12:32.935Z,62.10
2017-12-16T15:15:01.151Z,62.10
2017-12-16T15:17:28.598Z,62.10
2017-12-16T15:19:56.079Z,62.10
2017-12-16T15:22:23.646Z,62.40
2017-12-16T15:24:51.090Z,63.20
2017-12-16T15:27:18.534Z,63.80
2017-12-16T15:29:45.977Z,63.10
2017-12-16T15:32:13.435Z,62.80
2017-12-16T15:34:40.878Z,62.80
2017-12-16T15:37:09.342Z,62.90
2017-12-16T15:39:37.551Z,62.90
2017-12-16T15:42:05.077Z,62.90
2017-12-16T15:44:33.288Z,62.60
2017-12-16T15:47:00.744Z,62.50
2017-12-16T15:49:28.192Z,63.40
2017-12-16T15:51:55.626Z,63.70
2017-12-16T15:54:23.074Z,63.70
2017-12-16T15:56:51.286Z,63.50
2017-12-16T15:59:18.745Z,63.60
2017-12-16T16:01:46.186Z,62.50
2017-12-16T16:04:13.638Z,62.00
2017-12-16T16:06:41.076Z,62.90
2017-12-16T16:09:09.368Z,62.20
2017-12-16T16:11:37.573Z,62.10
2017-12-16T16:14:05.029Z,62.10
2017-12-16T16:16:32.485Z,61.60
2017-12-16T16:18:59.941Z,61.40
2017-12-16T16:21:27.461Z,61.50
2017-12-16T16:23:56.773Z,61.20
2017-12-16T16:26:24.586Z,61.20
2017-12-16T16:28:53.195Z,61.30
2017-12-16T16:31:20.750Z,61.20
2017-12-16T16:33:48.367Z,60.80
2017-12-16T16:36:16.031Z,61.20
2017-12-16T16:38:44.594Z,61.30
2017-12-16T16:41:12.861Z,61.90
2017-12-16T16:43:40.321Z,61.90
2017-12-16T16:46:10.442Z,62.70
2017-12-16T16:48:38.665Z,63.20
2017-12-16T16:51:06.110Z,63.20
2017-12-16T16:53:33.621Z,63.30
2017-12-16T16:56:01.841Z,63.10
2017-12-16T16:58:29.294Z,63.00
2017-12-16T17:00:57.849Z,62.90
2017-12-16T17:03:25.298Z,63.50
2017-12-16T17:05:53.519Z,63.20
2017-12-16T17:08:20.965Z,63.20
2017-12-16T17:10:48.420Z,63.10
2017-12-16T17:13:15.858Z,63.10
2017-12-16T17:15:44.377Z,62.70
2017-12-16T17:18:11.821Z,62.40
2017-12-16T17:20:39.290Z,62.40
2017-12-16T17:23:06.733Z,62.90
2017-12-16T17:25:34.189Z,62.80
2017-12-16T17:28:01.630Z,62.80
2017-12-16T17:30:29.082Z,62.50
2017-12-16T17:32:56.526Z,62.20
2017-12-16T17:35:24.002Z,62.40
2017-12-16T17:37:51.450Z,62.90
2017-12-16T17:40:19.830Z,62.30
2017-12-16T17:42:48.053Z,61.70
2017-12-16T17:45:15.509Z,61.70
2017-12-16T17:47:42.965Z,61.90
2017-12-16T17:50:10.407Z,61.70
2017-12-16T17:52:37.910Z,61.40
2017-12-16T17:55:05.383Z,61.60
2017-12-16T17:57:33.621Z,61.50
2017-12-16T18:00:01.071Z,61.50
2017-12-16T18:02:28.518Z,61.70
2017-12-16T18:04:56.029Z,62.00
2017-12-16T18:07:24.270Z,62.10
2017-12-16T18:09:51.726Z,62.10
2017-12-16T18:12:19.934Z,62.40
2017-12-16T18:14:47.378Z,62.40
2017-12-16T18:17:14.823Z,62.10
2017-12-16T18:19:42.281Z,62.20
2017-12-16T18:22:09.742Z,61.90
2017-12-16T18:24:37.179Z,62.00
2017-12-16T18:27:04.650Z,61.60
2017-12-16T18:29:32.102Z,61.60
2017-12-16T18:31:59.565Z,61.60
2017-12-16T18:34:27.014Z,61.90
2017-12-16T18:36:54.457Z,61.90
2017-12-16T18:39:21.931Z,62.10
2017-12-16T18:41:49.371Z,61.50
2017-12-16T18:44:16.817Z,61.70
2017-12-16T18:46:44.273Z,62.10
2017-12-16T18:49:11.729Z,62.00
2017-12-16T18:51:39.170Z,63.70
2017-12-16T18:54:06.622Z,67.30
2017-12-16T18:56:34.059Z,65.70
2017-12-16T19:01:35.378Z,64.00
2017-12-16T19:04:02.833Z,63.60
2017-12-16T19:06:30.282Z,63.80
2017-12-16T19:08:57.738Z,64.80
2017-12-16T19:11:25.173Z,64.60
2017-12-16T19:13:52.626Z,64.80
2017-12-16T19:16:20.063Z,64.50
2017-12-16T19:18:48.282Z,64.50
2017-12-16T19:21:15.750Z,64.50
2017-12-16T19:23:43.194Z,65.70
2017-12-16T19:26:10.640Z,65.20
2017-12-16T19:28:38.081Z,64.80
2017-12-16T19:31:06.293Z,63.70
2017-12-16T19:33:33.947Z,63.70
2017-12-16T19:36:01.610Z,63.60
2017-12-16T19:38:29.067Z,63.20
2017-12-16T19:40:57.590Z,63.00
2017-12-16T19:43:25.020Z,63.10
2017-12-16T19:45:54.401Z,63.20
2017-12-16T19:48:21.845Z,63.40
2017-12-16T19:50:50.332Z,63.40
2017-12-16T19:53:17.810Z,63.00
2017-12-16T19:55:45.277Z,63.60
2017-12-16T19:58:12.755Z,63.50
2017-12-16T20:00:41.008Z,64.10
2017-12-16T20:03:08.465Z,64.10
2017-12-16T20:05:35.914Z,64.10
2017-12-16T20:08:03.354Z,64.00
2017-12-16T20:10:30.815Z,63.70
2017-12-16T20:12:58.257Z,63.90
2017-12-16T20:15:25.726Z,63.40
2017-12-16T20:17:53.172Z,62.40
2017-12-16T20:20:21.404Z,61.70
2017-12-16T20:22:48.838Z,61.70
2017-12-16T20:25:16.369Z,61.90
2017-12-16T20:27:43.810Z,61.50
2017-12-16T20:30:12.038Z,61.40
2017-12-16T20:32:41.386Z,61.30
2017-12-16T20:35:10.369Z,61.40
2017-12-16T20:37:37.834Z,61.40
2017-12-16T20:40:06.054Z,61.60
2017-12-16T20:42:33.502Z,61.50
2017-12-16T20:45:01.189Z,61.30
2017-12-16T20:47:28.677Z,61.30
2017-12-16T20:49:56.146Z,61.20
2017-12-16T20:52:23.597Z,61.40
2017-12-16T20:54:51.038Z,61.70
2017-12-16T20:57:20.006Z,61.80
2017-12-16T20:59:47.453Z,61.90
2017-12-16T21:02:14.917Z,61.70
2017-12-16T21:04:42.421Z,61.90
2017-12-16T21:07:10.658Z,61.60
2017-12-16T21:09:38.146Z,61.50
2017-12-16T21:12:05.553Z,61.70
2017-12-16T21:14:33.002Z,61.70
2017-12-16T21:17:00.438Z,61.90
2017-12-16T21:19:27.874Z,61.80
2017-12-16T21:21:55.321Z,62.20
2017-12-16T21:24:22.769Z,62.40
2017-12-16T21:26:50.227Z,62.30
2017-12-16T21:29:17.668Z,62.30
2017-12-16T21:31:45.134Z,62.60
2017-12-16T21:34:12.630Z,62.80
2017-12-16T21:36:40.170Z,62.50
2017-12-16T21:39:07.737Z,62.30
2017-12-16T21:41:36.683Z,62.20
2017-12-16T21:44:04.138Z,62.20
2017-12-16T21:46:31.658Z,62.30
2017-12-16T21:48:59.874Z,62.40
2017-12-16T21:51:27.663Z,62.40
2017-12-16T21:53:55.106Z,62.50
2017-12-16T21:56:22.622Z,62.30
2017-12-16T21:58:50.875Z,62.70
2017-12-16T22:01:18.318Z,62.70
2017-12-16T22:03:45.819Z,62.80
2017-12-16T22:06:13.249Z,62.90
2017-12-16T22:08:40.698Z,62.90
2017-12-16T22:11:08.162Z,63.20
2017-12-16T22:13:36.395Z,63.20
2017-12-16T22:16:03.852Z,63.20
2017-12-16T22:18:31.305Z,63.20
2017-12-16T22:20:58.804Z,63.30
2017-12-16T22:23:26.242Z,63.30
2017-12-16T22:25:53.703Z,63.30
2017-12-16T22:28:21.154Z,63.50
2017-12-16T22:30:48.607Z,63.40
2017-12-16T22:33:16.081Z,64.10
2017-12-16T22:35:43.530Z,63.70
2017-12-16T22:38:10.983Z,63.10
2017-12-16T22:40:38.437Z,63.40
2017-12-16T22:43:05.873Z,63.60
2017-12-16T22:45:33.390Z,62.50
2017-12-16T22:48:01.624Z,63.30
2017-12-16T22:50:29.073Z,63.20
2017-12-16T22:52:56.529Z,63.70
2017-12-16T22:55:24.005Z,64.00
2017-12-16T22:57:51.451Z,64.40
2017-12-16T23:00:19.042Z,64.00
2017-12-16T23:02:47.521Z,64.40
2017-12-16T23:05:14.968Z,63.70
2017-12-16T23:07:42.430Z,63.60
2017-12-16T23:10:09.873Z,63.90
2017-12-16T23:12:37.323Z,64.00
2017-12-16T23:15:04.773Z,63.80
2017-12-16T23:17:32.287Z,63.80
2017-12-16T23:19:59.660Z,64.90
2017-12-16T23:22:27.106Z,64.30
2017-12-16T23:24:54.667Z,64.20
2017-12-16T23:27:22.892Z,63.90
2017-12-16T23:29:50.418Z,63.90
2017-12-16T23:32:17.874Z,63.50
2017-12-16T23:34:45.489Z,63.70
2017-12-16T23:37:13.113Z,63.40
2017-12-16T23:39:40.827Z,63.30
2017-12-16T23:42:08.276Z,63.10
2017-12-16T23:44:36.486Z,63.00
2017-12-16T23:47:03.930Z,63.10
2017-12-16T23:49:31.387Z,63.20
2017-12-16T23:51:59.602Z,63.20
2017-12-16T23:54:27.057Z,63.20
2017-12-16T23:56:54.510Z,62.90
2017-12-16T23:59:21.974Z,62.80
